Time;durP1;ratioP1;P1;durP2;ratioP2;P2;SDS_P1;SDS_P2;PMS_P1;PMS_P2;Temp;Humidity;BMP_temperature;BMP_pressure;BME280_temperature;BME280_humidity;BME280_pressure;Samples;Min_cycle;Max_cycle;Signal;HPM_P1;HPM_P2
2023/08/07 00:01:14;;;;;;;;;;;20.00;44.40;;;;;;1491628;78;730;-56
2023/08/07 00:03:18;;;;;;;;;;;20.00;44.40;;;;;;1504409;78;706;-56
2023/08/07 00:05:20;;;;;;;;;;;20.00;44.60;;;;;;1494656;78;763;-56
2023/08/07 00:07:24;;;;;;;;;;;20.00;44.50;;;;;;1497526;77;683;-55
2023/08/07 00:09:25;;;;;;;;;;;20.00;44.90;;;;;;1500325;77;1592;-57
2023/08/07 00:11:28;;;;;;;;;;;20.00;44.90;;;;;;1492338;78;789;-57
2023/08/07 00:13:30;;;;;;;;;;;20.00;44.90;;;;;;1499155;77;1392;-57
2023/08/07 00:15:33;;;;;;;;;;;19.90;44.80;;;;;;1502742;78;770;-56
2023/08/07 00:17:35;;;;;;;;;;;20.00;44.70;;;;;;1501846;77;803;-55
2023/08/07 00:19:37;;;;;;;;;;;19.90;44.50;;;;;;1503106;78;1961;-57
2023/08/07 00:21:39;;;;;;;;;;;19.90;44.80;;;;;;1498071;77;747;-56
2023/08/07 00:23:41;;;;;;;;;;;19.90;45.20;;;;;;1502239;78;760;-56
2023/08/07 00:25:42;;;;;;;;;;;19.90;45.00;;;;;;1500199;77;796;-55
2023/08/07 00:27:44;;;;;;;;;;;19.90;45.00;;;;;;1499394;77;748;-57
2023/08/07 00:29:46;;;;;;;;;;;19.90;45.10;;;;;;1503306;77;1155;-53
2023/08/07 00:31:48;;;;;;;;;;;19.90;45.20;;;;;;1494875;78;684;-55
2023/08/07 00:33:53;;;;;;;;;;;19.90;45.30;;;;;;1511700;78;657;-54
2023/08/07 00:35:53;;;;;;;;;;;19.90;45.20;;;;;;1501325;78;1502;-55
2023/08/07 00:37:55;;;;;;;;;;;19.90;45.50;;;;;;1500700;77;674;-55
2023/08/07 00:39:57;;;;;;;;;;;19.80;45.40;;;;;;1503756;78;1929;-56
2023/08/07 00:41:59;;;;;;;;;;;19.80;45.50;;;;;;1503670;78;726;-55
2023/08/07 00:44:01;;;;;;;;;;;19.80;45.60;;;;;;1512429;78;807;-54
2023/08/07 00:46:03;;;;;;;;;;;19.90;45.60;;;;;;1504794;78;742;-54
2023/08/07 00:48:05;;;;;;;;;;;19.90;45.50;;;;;;1500610;77;742;-54
2023/08/07 00:50:07;;;;;;;;;;;19.80;45.40;;;;;;1499045;77;1078;-55
2023/08/07 00:52:09;;;;;;;;;;;19.90;45.60;;;;;;1505775;77;745;-54
2023/08/07 00:54:12;;;;;;;;;;;19.80;45.70;;;;;;1490326;78;752;-55
2023/08/07 00:56:14;;;;;;;;;;;19.80;45.70;;;;;;1488938;78;795;-56
2023/08/07 00:58:16;;;;;;;;;;;19.80;45.70;;;;;;1495650;77;739;-54
2023/08/07 01:00:17;;;;;;;;;;;19.80;45.70;;;;;;1501150;77;1947;-55
2023/08/07 01:02:19;;;;;;;;;;;19.90;45.70;;;;;;1501721;78;734;-56
2023/08/07 01:04:21;;;;;;;;;;;19.80;45.50;;;;;;1495903;78;760;-56
2023/08/07 01:06:23;;;;;;;;;;;19.80;45.40;;;;;;1490344;78;663;-55
2023/08/07 01:08:25;;;;;;;;;;;19.80;45.50;;;;;;1496966;77;1162;-56
2023/08/07 01:10:32;;;;;;;;;;;19.80;45.70;;;;;;1492009;77;1527;-55
2023/08/07 01:12:34;;;;;;;;;;;19.80;45.70;;;;;;1463778;78;1122;-55
2023/08/07 01:14:38;;;;;;;;;;;19.80;45.70;;;;;;1491804;78;857;-57
2023/08/07 01:16:47;;;;;;;;;;;19.90;45.60;;;;;;1504160;78;729;-57
2023/08/07 01:18:49;;;;;;;;;;;19.80;45.70;;;;;;1507478;77;1128;-54
2023/08/07 01:20:51;;;;;;;;;;;19.90;45.60;;;;;;1491330;77;1929;-53
2023/08/07 01:22:53;;;;;;;;;;;19.80;45.40;;;;;;1494404;78;709;-57
2023/08/07 01:24:55;;;;;;;;;;;19.80;45.60;;;;;;1514804;77;746;-55
2023/08/07 01:26:57;;;;;;;;;;;19.80;45.50;;;;;;1491259;77;803;-55
2023/08/07 01:29:01;;;;;;;;;;;19.80;45.60;;;;;;1506897;77;1134;-56
2023/08/07 01:31:04;;;;;;;;;;;19.80;45.40;;;;;;1486887;77;1539;-55
2023/08/07 01:33:19;;;;;;;;;;;19.80;45.50;;;;;;1493182;78;748;-58
2023/08/07 01:35:25;;;;;;;;;;;19.80;45.50;;;;;;1473892;78;1111;-55
2023/08/07 01:37:26;;;;;;;;;;;19.80;45.40;;;;;;1507376;78;1695;-57
2023/08/07 01:39:28;;;;;;;;;;;19.80;45.40;;;;;;1516203;77;1953;-57
2023/08/07 01:41:30;;;;;;;;;;;19.80;45.50;;;;;;1498729;78;796;-56
2023/08/07 01:43:32;;;;;;;;;;;19.80;45.50;;;;;;1496855;77;726;-55
2023/08/07 01:45:34;;;;;;;;;;;19.80;45.40;;;;;;1488045;78;686;-54
2023/08/07 01:47:35;;;;;;;;;;;19.80;45.60;;;;;;1495584;77;710;-54
2023/08/07 01:49:38;;;;;;;;;;;19.90;45.40;;;;;;1492381;77;1087;-56
2023/08/07 01:51:40;;;;;;;;;;;19.90;45.30;;;;;;1493904;77;796;-56
2023/08/07 01:53:42;;;;;;;;;;;19.80;45.30;;;;;;1511342;78;711;-54
2023/08/07 01:55:44;;;;;;;;;;;19.90;45.20;;;;;;1507047;78;785;-55
2023/08/07 01:57:46;;;;;;;;;;;19.90;45.10;;;;;;1491146;77;720;-55
2023/08/07 01:59:48;;;;;;;;;;;19.90;45.20;;;;;;1495034;77;1983;-54
2023/08/07 02:01:49;;;;;;;;;;;19.80;44.90;;;;;;1485980;77;778;-54
2023/08/07 02:03:51;;;;;;;;;;;19.80;44.90;;;;;;1509495;78;768;-56
2023/08/07 02:05:53;;;;;;;;;;;19.80;45.20;;;;;;1494545;77;1514;-54
2023/08/07 02:07:56;;;;;;;;;;;19.80;45.20;;;;;;1500720;78;1052;-53
2023/08/07 02:09:58;;;;;;;;;;;19.80;45.30;;;;;;1507107;78;1183;-56
2023/08/07 02:12:01;;;;;;;;;;;19.80;45.10;;;;;;1507628;78;705;-55
2023/08/07 02:14:03;;;;;;;;;;;19.80;45.10;;;;;;1506997;77;1044;-53
2023/08/07 02:16:05;;;;;;;;;;;19.80;45.00;;;;;;1509789;78;763;-56
2023/08/07 02:18:07;;;;;;;;;;;19.80;45.30;;;;;;1481210;78;656;-57
2023/08/07 02:20:09;;;;;;;;;;;19.80;45.10;;;;;;1511243;78;1918;-55
2023/08/07 02:22:11;;;;;;;;;;;19.80;45.00;;;;;;1502526;77;794;-55
2023/08/07 02:24:13;;;;;;;;;;;19.80;44.80;;;;;;1508516;78;768;-55
2023/08/07 02:26:15;;;;;;;;;;;19.80;44.80;;;;;;1511496;77;774;-57
2023/08/07 02:28:17;;;;;;;;;;;19.80;44.70;;;;;;1501660;78;1145;-55
2023/08/07 02:30:19;;;;;;;;;;;19.80;44.60;;;;;;1505371;77;800;-54
2023/08/07 02:32:21;;;;;;;;;;;19.70;45.00;;;;;;1504786;78;772;-57
2023/08/07 02:34:22;;;;;;;;;;;19.70;45.00;;;;;;1511263;78;781;-55
2023/08/07 02:36:24;;;;;;;;;;;19.70;44.90;;;;;;1485097;78;742;-54
2023/08/07 02:38:26;;;;;;;;;;;19.80;45.20;;;;;;1496567;77;1159;-57
2023/08/07 02:40:30;;;;;;;;;;;19.80;45.20;;;;;;1515501;77;1917;-57
2023/08/07 02:42:32;;;;;;;;;;;19.70;44.70;;;;;;1487755;78;751;-54
2023/08/07 02:44:33;;;;;;;;;;;19.80;44.60;;;;;;1493570;78;744;-54
2023/08/07 02:46:36;;;;;;;;;;;19.70;44.70;;;;;;1488368;78;747;-57
2023/08/07 02:48:39;;;;;;;;;;;19.80;44.50;;;;;;1496397;77;1120;-56
2023/08/07 02:50:41;;;;;;;;;;;19.70;44.70;;;;;;1503519;78;1121;-55
2023/08/07 02:52:43;;;;;;;;;;;19.70;45.10;;;;;;1516101;77;616;-56
2023/08/07 02:54:44;;;;;;;;;;;19.70;44.70;;;;;;1502395;78;914;-53
2023/08/07 02:56:48;;;;;;;;;;;19.80;44.60;;;;;;1510051;77;754;-56
2023/08/07 02:58:50;;;;;;;;;;;19.80;45.00;;;;;;1505574;78;1118;-57
2023/08/07 03:00:52;;;;;;;;;;;19.80;45.00;;;;;;1499027;77;1926;-54
2023/08/07 03:02:54;;;;;;;;;;;19.70;45.00;;;;;;1507533;78;1563;-57
2023/08/07 03:04:56;;;;;;;;;;;19.70;44.60;;;;;;1511115;78;718;-54
2023/08/07 03:06:57;;;;;;;;;;;19.70;44.60;;;;;;1510446;78;777;-55
2023/08/07 03:08:59;;;;;;;;;;;19.70;45.00;;;;;;1501569;77;1176;-54
2023/08/07 03:11:01;;;;;;;;;;;19.70;44.90;;;;;;1509816;78;901;-57
2023/08/07 03:13:03;;;;;;;;;;;19.80;44.70;;;;;;1511151;78;850;-55
2023/08/07 03:15:05;;;;;;;;;;;19.80;44.70;;;;;;1511325;78;743;-56
2023/08/07 03:17:07;;;;;;;;;;;19.80;44.90;;;;;;1507346;78;721;-55
2023/08/07 03:19:09;;;;;;;;;;;19.80;44.40;;;;;;1495881;77;1142;-56
2023/08/07 03:21:11;;;;;;;;;;;19.80;44.50;;;;;;1506235;77;1937;-55
2023/08/07 03:23:13;;;;;;;;;;;19.80;44.20;;;;;;1494950;78;770;-55
2023/08/07 03:25:15;;;;;;;;;;;19.80;44.50;;;;;;1503879;77;771;-55
2023/08/07 03:27:17;;;;;;;;;;;19.70;44.70;;;;;;1484040;78;813;-54
2023/08/07 03:29:18;;;;;;;;;;;19.70;44.60;;;;;;1498574;77;1130;-55
2023/08/07 03:31:20;;;;;;;;;;;19.70;44.80;;;;;;1497360;78;741;-55
2023/08/07 03:33:22;;;;;;;;;;;19.80;44.60;;;;;;1499059;78;775;-56
2023/08/07 03:35:24;;;;;;;;;;;19.80;44.50;;;;;;1492053;78;729;-55
2023/08/07 03:37:26;;;;;;;;;;;19.80;44.40;;;;;;1498653;78;757;-54
2023/08/07 03:39:28;;;;;;;;;;;19.80;44.50;;;;;;1502204;77;1142;-55
2023/08/07 03:41:30;;;;;;;;;;;19.80;44.30;;;;;;1490014;77;1954;-57
2023/08/07 03:43:31;;;;;;;;;;;19.80;44.20;;;;;;1504230;78;720;-54
2023/08/07 03:45:33;;;;;;;;;;;19.70;43.90;;;;;;1499057;78;775;-57
2023/08/07 03:47:35;;;;;;;;;;;19.70;44.00;;;;;;1499685;77;773;-55
2023/08/07 03:49:37;;;;;;;;;;;19.70;44.20;;;;;;1493636;77;1089;-55
2023/08/07 03:51:39;;;;;;;;;;;19.70;44.10;;;;;;1498670;77;741;-54
2023/08/07 03:53:41;;;;;;;;;;;19.60;43.90;;;;;;1503248;78;801;-54
2023/08/07 03:55:44;;;;;;;;;;;19.70;44.30;;;;;;1501223;77;759;-55
2023/08/07 03:57:46;;;;;;;;;;;19.70;44.20;;;;;;1490709;77;794;-55
2023/08/07 03:59:48;;;;;;;;;;;19.70;43.90;;;;;;1491036;78;1665;-57
2023/08/07 04:01:50;;;;;;;;;;;19.60;43.90;;;;;;1499524;77;2168;-55
2023/08/07 04:03:52;;;;;;;;;;;19.70;44.00;;;;;;1507086;78;696;-55
2023/08/07 04:05:54;;;;;;;;;;;19.60;43.90;;;;;;1500115;78;734;-54
2023/08/07 04:07:56;;;;;;;;;;;19.60;44.20;;;;;;1504620;78;723;-55
2023/08/07 04:09:58;;;;;;;;;;;19.60;44.10;;;;;;1507637;77;1162;-56
2023/08/07 04:11:59;;;;;;;;;;;19.60;44.00;;;;;;1507778;78;726;-54
2023/08/07 04:14:01;;;;;;;;;;;19.60;44.20;;;;;;1493024;78;881;-56
2023/08/07 04:16:04;;;;;;;;;;;19.60;43.90;;;;;;1496876;78;779;-55
2023/08/07 04:18:06;;;;;;;;;;;19.60;43.80;;;;;;1501403;77;728;-56
2023/08/07 04:20:08;;;;;;;;;;;19.60;43.90;;;;;;1506011;78;1069;-57
2023/08/07 04:22:10;;;;;;;;;;;19.60;44.10;;;;;;1505475;77;1938;-56
2023/08/07 04:24:12;;;;;;;;;;;19.60;44.00;;;;;;1498372;77;762;-57
2023/08/07 04:26:14;;;;;;;;;;;19.60;44.10;;;;;;1495055;78;755;-55
2023/08/07 04:28:16;;;;;;;;;;;19.60;44.20;;;;;;1498774;78;807;-55
2023/08/07 04:30:17;;;;;;;;;;;19.60;44.00;;;;;;1508846;77;792;-57
2023/08/07 04:32:19;;;;;;;;;;;19.60;44.40;;;;;;1491778;78;735;-55
2023/08/07 04:34:21;;;;;;;;;;;19.60;44.20;;;;;;1494646;78;790;-57
2023/08/07 04:36:23;;;;;;;;;;;19.60;44.40;;;;;;1506403;78;729;-56
2023/08/07 04:38:25;;;;;;;;;;;19.60;44.30;;;;;;1505707;77;1130;-56
2023/08/07 04:40:27;;;;;;;;;;;19.60;44.20;;;;;;1497712;77;1917;-56
2023/08/07 04:42:29;;;;;;;;;;;19.60;44.20;;;;;;1493756;78;752;-55
2023/08/07 04:44:31;;;;;;;;;;;19.70;44.50;;;;;;1510763;78;726;-55
2023/08/07 04:46:33;;;;;;;;;;;19.70;44.20;;;;;;1497623;78;790;-55
2023/08/07 04:48:35;;;;;;;;;;;19.60;44.00;;;;;;1497260;77;1088;-55
2023/08/07 04:50:37;;;;;;;;;;;19.70;44.20;;;;;;1493730;78;748;-56
2023/08/07 04:52:39;;;;;;;;;;;19.60;43.80;;;;;;1494310;77;679;-53
2023/08/07 04:54:41;;;;;;;;;;;19.70;44.00;;;;;;1503586;77;1525;-56
2023/08/07 04:56:44;;;;;;;;;;;19.70;44.20;;;;;;1496902;78;780;-56
2023/08/07 04:58:46;;;;;;;;;;;19.70;43.90;;;;;;1496596;78;1150;-55
2023/08/07 05:00:47;;;;;;;;;;;19.60;43.80;;;;;;1499199;77;1928;-55
2023/08/07 05:02:49;;;;;;;;;;;19.60;43.90;;;;;;1511746;78;793;-54
2023/08/07 05:04:51;;;;;;;;;;;19.60;43.80;;;;;;1501250;78;693;-56
2023/08/07 05:06:53;;;;;;;;;;;19.60;43.40;;;;;;1505663;78;745;-57
2023/08/07 05:08:55;;;;;;;;;;;19.70;44.00;;;;;;1497828;77;1198;-54
2023/08/07 05:10:57;;;;;;;;;;;19.60;43.60;;;;;;1507213;77;651;-54
2023/08/07 05:12:59;;;;;;;;;;;19.60;43.70;;;;;;1498731;78;704;-55
2023/08/07 05:15:01;;;;;;;;;;;19.70;43.40;;;;;;1508987;78;776;-57
2023/08/07 05:17:03;;;;;;;;;;;19.70;43.30;;;;;;1501564;78;720;-57
2023/08/07 05:19:05;;;;;;;;;;;19.60;43.30;;;;;;1512545;77;1163;-55
2023/08/07 05:21:08;;;;;;;;;;;19.70;43.60;;;;;;1499703;77;1931;-56
2023/08/07 05:23:10;;;;;;;;;;;19.80;43.40;;;;;;1506551;77;750;-57
2023/08/07 05:25:15;;;;;;;;;;;19.80;43.20;;;;;;1506228;78;853;-56
2023/08/07 05:27:16;;;;;;;;;;;19.80;43.40;;;;;;1496923;78;1628;-54
2023/08/07 05:29:18;;;;;;;;;;;19.90;42.80;;;;;;1496484;77;1100;-55
2023/08/07 05:31:20;;;;;;;;;;;19.90;42.90;;;;;;1489054;78;766;-56
2023/08/07 05:33:21;;;;;;;;;;;20.00;42.70;;;;;;1500696;78;671;-56
2023/08/07 05:35:24;;;;;;;;;;;19.90;42.70;;;;;;1487389;78;719;-58
2023/08/07 05:37:26;;;;;;;;;;;19.90;42.30;;;;;;1514212;77;663;-55
2023/08/07 05:39:28;;;;;;;;;;;19.80;42.10;;;;;;1498102;77;1075;-57
2023/08/07 05:41:30;;;;;;;;;;;19.90;41.90;;;;;;1511868;78;1959;-57
2023/08/07 05:43:32;;;;;;;;;;;19.90;41.90;;;;;;1490905;78;738;-56
2023/08/07 05:45:34;;;;;;;;;;;20.00;41.80;;;;;;1504816;77;663;-57
2023/08/07 05:47:36;;;;;;;;;;;20.10;41.60;;;;;;1491708;78;715;-56
2023/08/07 05:49:38;;;;;;;;;;;20.10;41.50;;;;;;1495050;77;1145;-54
2023/08/07 05:51:39;;;;;;;;;;;20.20;41.40;;;;;;1501074;77;1509;-57
2023/08/07 05:53:42;;;;;;;;;;;20.30;41.30;;;;;;1491663;77;722;-54
2023/08/07 05:55:44;;;;;;;;;;;20.20;41.00;;;;;;1484574;78;708;-55
2023/08/07 05:57:46;;;;;;;;;;;20.30;41.20;;;;;;1503471;78;769;-57
2023/08/07 05:59:48;;;;;;;;;;;20.30;41.30;;;;;;1496940;77;1130;-56
2023/08/07 06:01:49;;;;;;;;;;;20.30;41.00;;;;;;1512770;77;1942;-57
2023/08/07 06:03:51;;;;;;;;;;;20.40;40.70;;;;;;1504819;78;767;-56
2023/08/07 06:05:53;;;;;;;;;;;20.40;40.40;;;;;;1491532;78;680;-55
2023/08/07 06:07:55;;;;;;;;;;;20.50;40.40;;;;;;1491378;77;739;-55
2023/08/07 06:09:57;;;;;;;;;;;21.00;40.50;;;;;;1504784;77;1172;-57
2023/08/07 06:11:59;;;;;;;;;;;20.50;40.50;;;;;;1495379;78;730;-57
2023/08/07 06:14:01;;;;;;;;;;;20.60;40.50;;;;;;1484399;78;802;-56
2023/08/07 06:16:03;;;;;;;;;;;20.70;40.70;;;;;;1504182;78;889;-57
2023/08/07 06:18:05;;;;;;;;;;;20.70;40.50;;;;;;1510035;77;812;-54
2023/08/07 06:20:09;;;;;;;;;;;20.70;39.90;;;;;;1500730;78;1116;-57
2023/08/07 06:22:10;;;;;;;;;;;20.70;39.90;;;;;;1513886;77;1932;-54
2023/08/07 06:24:12;;;;;;;;;;;20.70;39.80;;;;;;1504502;78;781;-54
2023/08/07 06:26:14;;;;;;;;;;;20.80;39.60;;;;;;1505352;78;792;-57
2023/08/07 06:28:16;;;;;;;;;;;20.80;39.60;;;;;;1495091;78;767;-57
2023/08/07 06:30:18;;;;;;;;;;;20.80;39.20;;;;;;1504849;77;787;-55
2023/08/07 06:32:20;;;;;;;;;;;20.80;39.40;;;;;;1507427;77;766;-55
2023/08/07 06:34:22;;;;;;;;;;;20.90;39.40;;;;;;1501101;78;781;-55
2023/08/07 06:36:24;;;;;;;;;;;20.90;39.40;;;;;;1501848;77;680;-57
2023/08/07 06:38:26;;;;;;;;;;;20.90;39.40;;;;;;1502936;78;1099;-55
2023/08/07 06:40:27;;;;;;;;;;;20.90;39.20;;;;;;1495132;77;801;-55
2023/08/07 06:42:29;;;;;;;;;;;20.90;39.20;;;;;;1501841;78;1949;-57
2023/08/07 06:44:31;;;;;;;;;;;20.90;39.20;;;;;;1494489;78;745;-55
2023/08/07 06:46:33;;;;;;;;;;;20.80;39.10;;;;;;1491617;78;1107;-57
2023/08/07 06:48:35;;;;;;;;;;;20.70;39.40;;;;;;1503174;77;1526;-57
2023/08/07 06:50:37;;;;;;;;;;;20.70;39.30;;;;;;1494524;77;679;-56
2023/08/07 06:52:39;;;;;;;;;;;20.50;39.00;;;;;;1490101;77;1084;-56
2023/08/07 06:54:41;;;;;;;;;;;20.60;39.30;;;;;;1510995;78;788;-54
2023/08/07 06:56:43;;;;;;;;;;;20.60;39.20;;;;;;1496379;78;735;-54
2023/08/07 06:58:45;;;;;;;;;;;20.60;39.10;;;;;;1490190;77;1079;-55
2023/08/07 07:00:47;;;;;;;;;;;20.50;39.20;;;;;;1491806;78;789;-54
2023/08/07 07:02:49;;;;;;;;;;;20.50;39.30;;;;;;1502308;78;1899;-55
2023/08/07 07:04:51;;;;;;;;;;;20.50;39.30;;;;;;1492265;77;814;-55
2023/08/07 07:06:53;;;;;;;;;;;20.50;39.60;;;;;;1513996;77;816;-56
2023/08/07 07:08:55;;;;;;;;;;;20.50;39.60;;;;;;1499952;78;1080;-54
2023/08/07 07:10:58;;;;;;;;;;;20.50;39.70;;;;;;1497290;77;729;-56
2023/08/07 07:13:00;;;;;;;;;;;20.50;39.80;;;;;;1497621;78;719;-57
2023/08/07 07:15:02;;;;;;;;;;;20.50;39.60;;;;;;1499459;77;775;-55
2023/08/07 07:17:04;;;;;;;;;;;20.40;39.30;;;;;;1499110;78;677;-57
2023/08/07 07:19:10;;;;;;;;;;;20.40;39.60;;;;;;1498818;77;1154;-57
2023/08/07 07:21:09;;;;;;;;;;;20.40;39.60;;;;;;1490837;77;1132;-56
2023/08/07 07:23:11;;;;;;;;;;;20.30;39.60;;;;;;1496788;78;1950;-55
2023/08/07 07:25:13;;;;;;;;;;;20.30;39.70;;;;;;1502915;78;783;-55
2023/08/07 07:27:15;;;;;;;;;;;20.20;39.90;;;;;;1497895;78;786;-55
2023/08/07 07:29:18;;;;;;;;;;;20.30;39.80;;;;;;1505802;77;1097;-54
2023/08/07 07:31:20;;;;;;;;;;;20.30;40.10;;;;;;1497462;77;713;-57
2023/08/07 07:33:22;;;;;;;;;;;20.30;40.00;;;;;;1485054;78;1130;-54
2023/08/07 07:35:24;;;;;;;;;;;20.20;40.30;;;;;;1491920;77;693;-54
2023/08/07 07:37:26;;;;;;;;;;;20.20;40.20;;;;;;1506610;78;817;-54
2023/08/07 07:39:28;;;;;;;;;;;20.20;39.70;;;;;;1499341;78;1163;-55
2023/08/07 07:41:29;;;;;;;;;;;20.20;39.80;;;;;;1497448;77;917;-55
2023/08/07 07:43:31;;;;;;;;;;;20.20;40.20;;;;;;1509517;78;1962;-56
2023/08/07 07:45:36;;;;;;;;;;;20.10;40.20;;;;;;1496711;78;790;-56
2023/08/07 07:47:38;;;;;;;;;;;20.10;40.00;;;;;;1503125;78;701;-56
2023/08/07 07:49:42;;;;;;;;;;;20.10;40.20;;;;;;1497439;77;1138;-55
2023/08/07 07:51:44;;;;;;;;;;;20.10;40.00;;;;;;1511258;77;1139;-55
2023/08/07 07:53:46;;;;;;;;;;;20.00;39.90;;;;;;1514167;78;759;-55
2023/08/07 07:55:48;;;;;;;;;;;20.00;39.70;;;;;;1491722;78;737;-56
2023/08/07 07:57:50;;;;;;;;;;;20.00;39.60;;;;;;1497266;78;808;-55
2023/08/07 07:59:52;;;;;;;;;;;20.10;40.00;;;;;;1483789;78;1122;-56
2023/08/07 08:01:54;;;;;;;;;;;20.00;40.00;;;;;;1502945;77;1936;-56
2023/08/07 08:03:56;;;;;;;;;;;20.00;40.20;;;;;;1500421;77;755;-55
2023/08/07 08:05:58;;;;;;;;;;;20.00;40.20;;;;;;1491746;78;654;-55
2023/08/07 08:07:59;;;;;;;;;;;20.10;40.50;;;;;;1511656;77;644;-55
2023/08/07 08:10:01;;;;;;;;;;;20.10;40.10;;;;;;1499116;77;1125;-55
2023/08/07 08:12:03;;;;;;;;;;;20.00;39.80;;;;;;1506355;78;729;-54
2023/08/07 08:14:05;;;;;;;;;;;20.00;39.70;;;;;;1497122;78;805;-55
2023/08/07 08:16:07;;;;;;;;;;;19.90;39.60;;;;;;1494405;78;783;-55
2023/08/07 08:18:09;;;;;;;;;;;19.90;40.10;;;;;;1498375;77;773;-56
2023/08/07 08:20:15;;;;;;;;;;;20.00;40.20;;;;;;1494955;77;1080;-55
2023/08/07 08:22:15;;;;;;;;;;;19.90;40.00;;;;;;1499901;77;1924;-56
2023/08/07 08:24:17;;;;;;;;;;;20.00;40.20;;;;;;1506773;78;794;-55
2023/08/07 08:26:19;;;;;;;;;;;19.90;40.10;;;;;;1496225;77;732;-57
2023/08/07 08:28:21;;;;;;;;;;;19.90;40.30;;;;;;1496686;78;1111;-56
2023/08/07 08:30:23;;;;;;;;;;;19.90;40.80;;;;;;1497700;77;795;-57
2023/08/07 08:32:24;;;;;;;;;;;20.00;40.60;;;;;;1512776;77;739;-56
2023/08/07 08:34:27;;;;;;;;;;;20.00;40.50;;;;;;1510461;77;862;-56
2023/08/07 08:36:29;;;;;;;;;;;19.90;40.50;;;;;;1495947;78;817;-57
2023/08/07 08:38:33;;;;;;;;;;;19.90;40.20;;;;;;1501006;78;1167;-56
2023/08/07 08:40:34;;;;;;;;;;;19.90;40.40;;;;;;1515869;77;1614;-57
2023/08/07 08:42:36;;;;;;;;;;;19.90;40.30;;;;;;1514069;78;1949;-57
2023/08/07 08:44:38;;;;;;;;;;;19.90;40.30;;;;;;1502390;78;745;-56
2023/08/07 08:46:40;;;;;;;;;;;19.90;40.30;;;;;;1500641;78;1073;-56
2023/08/07 08:48:42;;;;;;;;;;;19.90;40.50;;;;;;1504291;77;1090;-57
2023/08/07 08:50:44;;;;;;;;;;;19.90;40.30;;;;;;1500439;78;726;-55
2023/08/07 08:52:46;;;;;;;;;;;19.80;40.40;;;;;;1500771;78;799;-55
2023/08/07 08:54:47;;;;;;;;;;;19.90;40.60;;;;;;1501451;78;731;-55
2023/08/07 08:56:50;;;;;;;;;;;19.90;40.50;;;;;;1500604;78;760;-55
2023/08/07 08:58:51;;;;;;;;;;;19.90;40.50;;;;;;1508096;77;1132;-55
2023/08/07 09:00:53;;;;;;;;;;;19.90;40.60;;;;;;1497022;77;824;-57
2023/08/07 09:02:55;;;;;;;;;;;19.90;40.70;;;;;;1502229;77;1943;-56
2023/08/07 09:04:57;;;;;;;;;;;19.90;40.70;;;;;;1506202;77;779;-57
2023/08/07 09:06:59;;;;;;;;;;;19.90;40.90;;;;;;1501630;77;697;-56
2023/08/07 09:09:01;;;;;;;;;;;19.90;40.90;;;;;;1494163;78;1141;-55
2023/08/07 09:11:03;;;;;;;;;;;19.90;41.00;;;;;;1507840;78;815;-57
2023/08/07 09:13:06;;;;;;;;;;;19.90;41.10;;;;;;1491431;78;739;-54
2023/08/07 09:15:08;;;;;;;;;;;19.90;41.10;;;;;;1488019;78;715;-56
2023/08/07 09:17:09;;;;;;;;;;;19.90;40.90;;;;;;1494822;77;1108;-55
2023/08/07 09:19:11;;;;;;;;;;;19.90;40.90;;;;;;1502878;77;1174;-54
2023/08/07 09:21:16;;;;;;;;;;;19.90;40.90;;;;;;1484875;77;697;-57
2023/08/07 09:23:17;;;;;;;;;;;19.90;40.90;;;;;;1499368;78;1923;-56
2023/08/07 09:25:28;;;;;;;;;;;20.00;40.90;;;;;;1499358;78;721;-55
2023/08/07 09:27:31;;;;;;;;;;;20.00;41.00;;;;;;1497213;78;769;-56
2023/08/07 09:29:33;;;;;;;;;;;20.00;41.30;;;;;;1503071;77;1145;-54
2023/08/07 09:31:37;;;;;;;;;;;19.90;41.30;;;;;;1512152;77;815;-54
2023/08/07 09:33:39;;;;;;;;;;;19.90;40.90;;;;;;1499213;78;861;-55
2023/08/07 09:35:41;;;;;;;;;;;19.90;41.10;;;;;;1470104;80;757;-54
2023/08/07 09:37:43;;;;;;;;;;;19.90;41.00;;;;;;1529668;76;1522;-57
2023/08/07 09:39:45;;;;;;;;;;;19.90;41.00;;;;;;1491701;78;1201;-57
2023/08/07 09:41:49;;;;;;;;;;;19.90;41.00;;;;;;1481922;78;657;-55
2023/08/07 09:43:51;;;;;;;;;;;19.90;41.20;;;;;;1539089;76;1942;-55
2023/08/07 09:45:53;;;;;;;;;;;19.90;41.20;;;;;;1517741;77;727;-57
2023/08/07 09:47:59;;;;;;;;;;;19.90;41.70;;;;;;1510552;77;744;-55
2023/08/07 09:50:01;;;;;;;;;;;19.90;41.80;;;;;;1497924;77;1675;-56
2023/08/07 09:52:03;;;;;;;;;;;19.90;41.50;;;;;;1501466;77;849;-57
2023/08/07 09:54:04;;;;;;;;;;;19.90;41.60;;;;;;1512921;78;1052;-55
2023/08/07 09:56:06;;;;;;;;;;;19.90;41.80;;;;;;1504671;78;746;-54
2023/08/07 09:58:08;;;;;;;;;;;20.00;41.80;;;;;;1491604;78;789;-57
2023/08/07 10:00:11;;;;;;;;;;;19.90;41.80;;;;;;1501669;77;1102;-57
2023/08/07 10:02:13;;;;;;;;;;;19.90;41.60;;;;;;1503689;77;727;-55
2023/08/07 10:04:15;;;;;;;;;;;20.00;41.70;;;;;;1497645;78;1958;-58
2023/08/07 10:06:18;;;;;;;;;;;19.90;41.80;;;;;;1499435;78;759;-55
2023/08/07 10:08:21;;;;;;;;;;;20.00;41.50;;;;;;1500322;78;1097;-55
2023/08/07 10:10:23;;;;;;;;;;;20.00;41.40;;;;;;1502072;77;800;-57
2023/08/07 10:12:24;;;;;;;;;;;19.90;41.60;;;;;;1505996;78;729;-55
2023/08/07 10:14:26;;;;;;;;;;;19.90;41.90;;;;;;1492291;78;778;-57
2023/08/07 10:16:28;;;;;;;;;;;20.00;42.20;;;;;;1503264;78;667;-55
2023/08/07 10:18:30;;;;;;;;;;;20.00;42.10;;;;;;1488771;77;1163;-55
2023/08/07 10:20:32;;;;;;;;;;;20.00;41.80;;;;;;1509925;78;746;-54
2023/08/07 10:22:34;;;;;;;;;;;20.00;41.60;;;;;;1505744;77;1922;-55
2023/08/07 10:24:37;;;;;;;;;;;20.00;41.60;;;;;;1491317;78;755;-55
2023/08/07 10:26:40;;;;;;;;;;;20.00;41.80;;;;;;1494005;78;773;-54
2023/08/07 10:28:42;;;;;;;;;;;20.00;41.80;;;;;;1510512;77;1123;-55
2023/08/07 10:30:44;;;;;;;;;;;20.00;42.10;;;;;;1500437;77;776;-57
2023/08/07 10:32:46;;;;;;;;;;;20.00;42.00;;;;;;1505951;77;1481;-57
2023/08/07 10:34:50;;;;;;;;;;;19.90;41.80;;;;;;1514953;78;817;-55
2023/08/07 10:36:52;;;;;;;;;;;20.10;41.90;;;;;;1501462;78;722;-54
2023/08/07 10:38:55;;;;;;;;;;;19.90;41.70;;;;;;1501662;77;1134;-54
2023/08/07 10:41:05;;;;;;;;;;;20.00;41.30;;;;;;1512731;78;1787;-55
2023/08/07 10:43:11;;;;;;;;;;;20.00;41.10;;;;;;1497125;77;2117;-55
2023/08/07 10:45:14;;;;;;;;;;;20.00;41.00;;;;;;1503424;78;990;-55
2023/08/07 10:47:16;;;;;;;;;;;20.00;41.30;;;;;;1498454;77;792;-57
2023/08/07 10:49:32;;;;;;;;;;;19.90;41.30;;;;;;1521358;76;1140;-55
2023/08/07 10:51:36;;;;;;;;;;;20.00;41.40;;;;;;1529914;76;1629;-56
2023/08/07 10:53:40;;;;;;;;;;;20.00;41.70;;;;;;1540293;76;912;-57
2023/08/07 10:55:49;;;;;;;;;;;20.00;41.80;;;;;;1520150;76;1621;-57
2023/08/07 10:57:48;;;;;;;;;;;20.00;42.00;;;;;;1522062;76;1488;-56
2023/08/07 10:59:59;;;;;;;;;;;20.00;41.90;;;;;;1527626;76;1140;-57
2023/08/07 11:02:01;;;;;;;;;;;20.00;41.80;;;;;;1533620;76;722;-55
2023/08/07 11:04:06;;;;;;;;;;;20.10;42.10;;;;;;1524941;76;1934;-54
2023/08/07 11:06:10;;;;;;;;;;;20.00;42.10;;;;;;1526983;76;679;-55
2023/08/07 11:08:12;;;;;;;;;;;20.00;41.80;;;;;;1540499;76;685;-55
2023/08/07 11:10:18;;;;;;;;;;;20.10;41.80;;;;;;1532008;76;1084;-56
2023/08/07 11:12:17;;;;;;;;;;;20.00;41.50;;;;;;1522248;76;1261;-56
2023/08/07 11:14:19;;;;;;;;;;;20.00;41.80;;;;;;1532210;76;769;-56
2023/08/07 11:16:21;;;;;;;;;;;20.10;42.10;;;;;;1510103;76;796;-53
2023/08/07 11:18:23;;;;;;;;;;;20.10;42.30;;;;;;1528766;76;1133;-55
2023/08/07 11:20:25;;;;;;;;;;;20.10;42.00;;;;;;1541658;76;772;-57
2023/08/07 11:22:27;;;;;;;;;;;20.10;41.90;;;;;;1527014;76;680;-53
2023/08/07 11:24:29;;;;;;;;;;;20.10;42.10;;;;;;1520657;76;1895;-54
2023/08/07 11:26:31;;;;;;;;;;;20.10;42.10;;;;;;1535095;76;770;-55
2023/08/07 11:28:33;;;;;;;;;;;20.10;42.20;;;;;;1526530;76;1371;-54
2023/08/07 11:30:35;;;;;;;;;;;20.10;41.80;;;;;;1529830;76;771;-55
2023/08/07 11:32:37;;;;;;;;;;;20.10;41.90;;;;;;1529353;76;805;-56
2023/08/07 11:34:40;;;;;;;;;;;20.10;41.70;;;;;;1523933;77;711;-55
2023/08/07 11:36:42;;;;;;;;;;;20.10;41.50;;;;;;1520273;76;724;-56
2023/08/07 11:38:44;;;;;;;;;;;20.10;41.30;;;;;;1523822;77;1156;-57
2023/08/07 11:40:46;;;;;;;;;;;20.10;41.10;;;;;;1531894;76;803;-57
2023/08/07 11:42:48;;;;;;;;;;;20.10;41.00;;;;;;1528260;76;728;-54
2023/08/07 11:44:50;;;;;;;;;;;20.10;40.60;;;;;;1514190;76;1949;-57
2023/08/07 11:46:52;;;;;;;;;;;20.10;41.00;;;;;;1532385;76;795;-58
2023/08/07 11:48:54;;;;;;;;;;;20.10;41.00;;;;;;1537490;76;1125;-56
2023/08/07 11:50:57;;;;;;;;;;;20.10;41.30;;;;;;1526834;76;781;-57
2023/08/07 11:53:00;;;;;;;;;;;20.10;40.70;;;;;;1523504;76;801;-57
2023/08/07 11:55:03;;;;;;;;;;;20.10;40.30;;;;;;1525820;76;818;-57
2023/08/07 11:57:07;;;;;;;;;;;20.10;40.10;;;;;;1521470;76;741;-57
2023/08/07 11:59:09;;;;;;;;;;;20.10;40.30;;;;;;1525374;76;1806;-55
2023/08/07 12:01:11;;;;;;;;;;;20.10;39.50;;;;;;1528840;76;748;-57
2023/08/07 12:03:29;;;;;;;;;;;20.00;39.20;;;;;;1534015;76;1929;-57
2023/08/07 12:05:32;;;;;;;;;;;20.10;39.60;;;;;;1500229;77;850;-57
2023/08/07 12:07:34;;;;;;;;;;;20.00;39.60;;;;;;1514109;77;1408;-54
2023/08/07 12:09:36;;;;;;;;;;;20.00;39.80;;;;;;1505064;77;1124;-58